Time;durP1;ratioP1;P1;durP2;ratioP2;P2;SDS_P1;SDS_P2;PMS_P1;PMS_P2;Temp;Humidity;BMP_temperature;BMP_pressure;BME280_temperature;BME280_humidity;BME280_pressure;Samples;Min_cycle;Max_cycle;Signal;HPM_P1;HPM_P2
2023/05/27 00:01:22;;;;;;;;;;;;;;;21.50;55.57;100179.41;4355262;32;33598;-82
2023/05/27 00:03:50;;;;;;;;;;;;;;;21.60;54.99;100183.06;4355018;32;34160;-82
2023/05/27 00:06:19;;;;;;;;;;;;;;;21.51;55.55;100178.47;4366651;32;33787;-82
2023/05/27 00:08:47;;;;;;;;;;;;;;;21.59;54.95;100184.03;4347521;32;34670;-82
2023/05/27 00:11:16;;;;;;;;;;;;;;;21.62;54.51;100175.72;4354906;32;34362;-82
2023/05/27 00:13:44;;;;;;;;;;;;;;;21.48;55.09;100179.56;4359395;32;33440;-82
2023/05/27 00:16:11;;;;;;;;;;;;;;;21.39;55.33;100168.72;4354610;32;34123;-81
2023/05/27 00:18:40;;;;;;;;;;;;;;;21.43;55.25;100171.03;4372587;32;34547;-82
2023/05/27 00:21:08;;;;;;;;;;;;;;;21.39;55.56;100174.94;4355094;32;33022;-81
2023/05/27 00:23:36;;;;;;;;;;;;;;;21.23;55.89;100164.59;4352655;32;33306;-82
2023/05/27 00:26:03;;;;;;;;;;;;;;;21.19;55.79;100178.41;4361879;32;32603;-82
2023/05/27 00:28:32;;;;;;;;;;;;;;;21.20;55.65;100170.19;4359083;32;33031;-82
2023/05/27 00:31:00;;;;;;;;;;;;;;;21.27;55.25;100175.94;4341811;32;33539;-82
2023/05/27 00:33:29;;;;;;;;;;;;;;;20.90;56.08;100173.56;4329530;32;32659;-82
2023/05/27 00:35:56;;;;;;;;;;;;;;;21.07;55.32;100169.50;4347756;32;35082;-82
2023/05/27 00:38:24;;;;;;;;;;;;;;;20.90;55.98;100167.34;4343411;32;34363;-82
2023/05/27 00:40:52;;;;;;;;;;;;;;;20.95;55.99;100175.87;4353013;32;32903;-82
2023/05/27 00:43:21;;;;;;;;;;;;;;;20.96;56.17;100161.47;4354681;32;33864;-82
2023/05/27 00:45:48;;;;;;;;;;;;;;;20.89;56.38;100165.66;4357486;32;34167;-82
2023/05/27 00:48:16;;;;;;;;;;;;;;;20.93;56.04;100164.41;4351532;32;34747;-82
2023/05/27 00:50:48;;;;;;;;;;;;;;;20.89;56.12;100166.50;4359960;32;33284;-81
2023/05/27 00:53:15;;;;;;;;;;;;;;;20.70;56.76;100166.28;4349445;32;34129;-82
2023/05/27 00:55:43;;;;;;;;;;;;;;;20.79;56.37;100167.34;4352156;32;33787;-82
2023/05/27 00:58:11;;;;;;;;;;;;;;;20.66;56.51;100165.66;4352549;32;34046;-82
2023/05/27 01:00:39;;;;;;;;;;;;;;;20.51;57.04;100166.88;4364501;32;33853;-82
2023/05/27 01:03:06;;;;;;;;;;;;;;;20.71;56.36;100178.72;4351587;32;34337;-82
2023/05/27 01:05:34;;;;;;;;;;;;;;;20.46;57.11;100172.56;4351458;32;33953;-81
2023/05/27 01:08:02;;;;;;;;;;;;;;;20.53;56.93;100167.59;4350712;32;33642;-81
2023/05/27 01:10:47;;;;;;;;;;;;;;;20.50;57.24;100175.03;4348630;32;32798;-81
2023/05/27 01:13:15;;;;;;;;;;;;;;;20.53;56.99;100169.44;4351415;32;33690;-81
2023/05/27 01:15:43;;;;;;;;;;;;;;;20.46;57.22;100171.69;4348156;32;32962;-82
2023/05/27 01:18:11;;;;;;;;;;;;;;;20.23;57.86;100168.16;4351973;32;33488;-82
2023/05/27 01:20:40;;;;;;;;;;;;;;;20.30;57.84;100163.16;4351958;32;33516;-82
2023/05/27 01:23:09;;;;;;;;;;;;;;;20.43;57.09;100163.91;4343829;32;34217;-81
2023/05/27 01:25:37;;;;;;;;;;;;;;;20.31;57.62;100167.53;4351727;32;34962;-81
2023/05/27 01:28:05;;;;;;;;;;;;;;;20.32;57.55;100161.19;4339136;32;34508;-82
2023/05/27 01:30:33;;;;;;;;;;;;;;;20.24;58.23;100158.28;4338630;33;33371;-81
2023/05/27 01:33:03;;;;;;;;;;;;;;;20.32;57.69;100159.41;4352397;32;33838;-81
2023/05/27 01:35:34;;;;;;;;;;;;;;;20.23;58.18;100153.91;4352403;32;34854;-81
2023/05/27 01:38:03;;;;;;;;;;;;;;;19.83;59.35;100159.66;4350748;32;34718;-81
2023/05/27 01:40:31;;;;;;;;;;;;;;;20.21;57.84;100159.37;4353627;32;33395;-81
2023/05/27 01:43:00;;;;;;;;;;;;;;;20.12;58.42;100155.56;4339383;32;33529;-81
2023/05/27 01:45:28;;;;;;;;;;;;;;;19.95;58.81;100154.22;4337140;32;33828;-82
2023/05/27 01:47:55;;;;;;;;;;;;;;;20.14;58.13;100150.09;4340758;33;34354;-82
2023/05/27 01:50:23;;;;;;;;;;;;;;;19.97;58.62;100146.03;4352174;32;33254;-82
2023/05/27 01:52:52;;;;;;;;;;;;;;;19.77;59.45;100150.25;4340758;32;34516;-81
2023/05/27 01:55:19;;;;;;;;;;;;;;;20.01;58.41;100157.38;4340405;32;33734;-82
2023/05/27 01:57:47;;;;;;;;;;;;;;;19.87;58.98;100159.28;4350853;32;34149;-81
2023/05/27 02:00:16;;;;;;;;;;;;;;;19.69;59.62;100149.97;4350350;32;34435;-81
2023/05/27 02:02:44;;;;;;;;;;;;;;;20.04;58.28;100155.34;4340273;32;34135;-81
2023/05/27 02:05:12;;;;;;;;;;;;;;;19.92;58.77;100148.22;4339734;32;33073;-81
2023/05/27 02:07:40;;;;;;;;;;;;;;;19.78;59.33;100146.59;4351132;32;34272;-81
2023/05/27 02:10:08;;;;;;;;;;;;;;;19.97;58.48;100142.50;4361050;32;32259;-81
2023/05/27 02:12:35;;;;;;;;;;;;;;;19.84;58.82;100150.62;4339522;32;33235;-81
2023/05/27 02:15:03;;;;;;;;;;;;;;;19.65;59.33;100141.34;4351966;32;33899;-81
2023/05/27 02:17:32;;;;;;;;;;;;;;;19.70;59.18;100151.69;4351153;32;34174;-81
2023/05/27 02:20:01;;;;;;;;;;;;;;;19.65;59.30;100145.81;4349711;32;33428;-82
2023/05/27 02:22:29;;;;;;;;;;;;;;;19.50;59.96;100152.31;4349804;32;34953;-81
2023/05/27 02:24:56;;;;;;;;;;;;;;;19.31;60.55;100144.81;4350022;32;34979;-81
2023/05/27 02:27:24;;;;;;;;;;;;;;;19.52;59.50;100145.87;4353048;32;34272;-81
2023/05/27 02:29:52;;;;;;;;;;;;;;;19.29;60.40;100144.06;4351965;32;34251;-82
2023/05/27 02:32:20;;;;;;;;;;;;;;;19.36;60.13;100156.03;4337203;32;33870;-82
2023/05/27 02:34:48;;;;;;;;;;;;;;;19.38;60.31;100151.41;4348396;32;34039;-82
2023/05/27 02:37:15;;;;;;;;;;;;;;;19.68;58.94;100146.44;4350243;32;33601;-82
2023/05/27 02:39:42;;;;;;;;;;;;;;;19.42;59.71;100150.22;4352492;32;34037;-82
2023/05/27 02:42:10;;;;;;;;;;;;;;;19.24;60.51;100154.28;4353595;32;33823;-82
2023/05/27 02:44:38;;;;;;;;;;;;;;;19.28;59.92;100161.12;4353068;32;34778;-82
2023/05/27 02:47:10;;;;;;;;;;;;;;;19.41;59.81;100159.22;4346420;32;34839;-81
2023/05/27 02:49:39;;;;;;;;;;;;;;;19.55;59.01;100148.31;4351981;32;33833;-82
2023/05/27 02:52:07;;;;;;;;;;;;;;;19.38;59.88;100162.13;4366197;32;33217;-81
2023/05/27 02:54:35;;;;;;;;;;;;;;;19.32;60.12;100159.88;4354655;32;33740;-82
2023/05/27 02:57:03;;;;;;;;;;;;;;;19.25;60.32;100159.50;4351495;32;33130;-81
2023/05/27 02:59:30;;;;;;;;;;;;;;;19.38;60.09;100154.09;4341982;32;32459;-82
2023/05/27 03:01:57;;;;;;;;;;;;;;;19.41;59.49;100154.69;4348492;32;33686;-82
2023/05/27 03:04:25;;;;;;;;;;;;;;;19.47;59.08;100153.41;4362719;32;34257;-82
2023/05/27 03:06:54;;;;;;;;;;;;;;;19.19;60.00;100159.97;4349220;32;34664;-82
2023/05/27 03:09:21;;;;;;;;;;;;;;;19.37;59.49;100163.06;4362115;32;33633;-82
2023/05/27 03:11:49;;;;;;;;;;;;;;;19.35;59.41;100159.66;4348514;32;33964;-82
2023/05/27 03:14:20;;;;;;;;;;;;;;;19.30;59.63;100165.38;4348409;32;34542;-81
2023/05/27 03:16:48;;;;;;;;;;;;;;;19.32;59.34;100162.56;4335908;32;33715;-81
2023/05/27 03:19:15;;;;;;;;;;;;;;;19.03;60.28;100164.72;4336175;32;32629;-82
2023/05/27 03:21:44;;;;;;;;;;;;;;;19.41;58.97;100169.91;4361339;32;35293;-81
2023/05/27 03:24:13;;;;;;;;;;;;;;;19.17;59.35;100162.72;4348095;32;34480;-81
2023/05/27 03:26:41;;;;;;;;;;;;;;;19.22;59.52;100164.22;4340819;32;34410;-81
2023/05/27 03:29:10;;;;;;;;;;;;;;;19.16;60.11;100165.53;4348895;32;33336;-82
2023/05/27 03:31:38;;;;;;;;;;;;;;;19.13;60.10;100171.97;4360454;32;33765;-81
2023/05/27 03:34:06;;;;;;;;;;;;;;;19.07;60.34;100177.75;4348794;32;34401;-82
2023/05/27 03:36:35;;;;;;;;;;;;;;;19.32;59.18;100171.47;4347574;32;33556;-81
2023/05/27 03:39:04;;;;;;;;;;;;;;;19.42;59.27;100182.38;4342113;32;32306;-81
2023/05/27 03:41:32;;;;;;;;;;;;;;;19.21;60.34;100175.91;4348869;32;34923;-82
2023/05/27 03:44:01;;;;;;;;;;;;;;;19.46;59.45;100178.47;4341984;32;35002;-81
2023/05/27 03:46:31;;;;;;;;;;;;;;;19.10;60.62;100177.56;4347253;32;34315;-82
2023/05/27 03:48:59;;;;;;;;;;;;;;;19.27;60.39;100180.78;4336239;32;34228;-82
2023/05/27 03:51:37;;;;;;;;;;;;;;;19.41;60.46;100178.81;4348430;32;34184;-82
2023/05/27 03:54:06;;;;;;;;;;;;;;;19.38;60.45;100180.88;4361528;32;34147;-82
2023/05/27 03:56:34;;;;;;;;;;;;;;;19.46;60.14;100173.09;4335864;32;33192;-82
2023/05/27 03:59:02;;;;;;;;;;;;;;;19.83;58.88;100176.56;4360290;32;33317;-81
2023/05/27 04:01:29;;;;;;;;;;;;;;;19.69;59.95;100176.78;4336157;32;33590;-81
2023/05/27 04:03:57;;;;;;;;;;;;;;;19.78;59.81;100172.53;4347180;32;35787;-82
2023/05/27 04:06:26;;;;;;;;;;;;;;;19.87;59.36;100179.87;4338176;32;34776;-81
2023/05/27 04:08:55;;;;;;;;;;;;;;;19.91;59.01;100176.84;4361568;32;32998;-81
2023/05/27 04:11:25;;;;;;;;;;;;;;;20.03;58.86;100172.37;4347898;32;34525;-81
2023/05/27 04:13:52;;;;;;;;;;;;;;;20.28;58.11;100176.69;4360468;32;35002;-81
2023/05/27 04:16:21;;;;;;;;;;;;;;;20.68;57.68;100177.09;4361637;32;34494;-81
2023/05/27 04:18:51;;;;;;;;;;;;;;;20.54;58.17;100176.50;4347631;32;33429;-82
2023/05/27 04:21:19;;;;;;;;;;;;;;;20.69;57.82;100183.31;4360817;32;34600;-82
2023/05/27 04:23:50;;;;;;;;;;;;;;;20.79;57.39;100184.28;4336252;32;34293;-81
2023/05/27 04:26:19;;;;;;;;;;;;;;;20.77;56.73;100177.34;4340733;32;34545;-81
2023/05/27 04:28:48;;;;;;;;;;;;;;;21.30;55.30;100178.34;4347859;32;33195;-81
2023/05/27 04:31:18;;;;;;;;;;;;;;;21.26;55.76;100182.25;4348017;32;33941;-81
2023/05/27 04:33:46;;;;;;;;;;;;;;;21.36;54.69;100187.75;4360331;32;34585;-81
2023/05/27 04:36:16;;;;;;;;;;;;;;;21.60;54.42;100185.75;4347605;32;34841;-81
2023/05/27 04:38:47;;;;;;;;;;;;;;;21.69;54.26;100190.34;4360198;32;33536;-81
2023/05/27 04:41:16;;;;;;;;;;;;;;;21.90;53.51;100182.31;4336007;32;32922;-81
2023/05/27 04:43:45;;;;;;;;;;;;;;;22.32;52.46;100189.56;4347911;32;34704;-81
2023/05/27 04:46:13;;;;;;;;;;;;;;;22.39;53.07;100185.34;4347567;32;34803;-81
2023/05/27 04:48:44;;;;;;;;;;;;;;;22.27;53.20;100186.41;4348327;32;34338;-81
2023/05/27 04:51:15;;;;;;;;;;;;;;;22.42;52.86;100190.47;4347616;32;34790;-82
2023/05/27 04:53:43;;;;;;;;;;;;;;;22.80;52.36;100183.56;4336042;32;33484;-81
2023/05/27 04:56:14;;;;;;;;;;;;;;;22.59;51.07;100184.44;4335667;32;32901;-81
2023/05/27 04:58:46;;;;;;;;;;;;;;;22.36;50.61;100185.59;4354947;32;32874;-81
2023/05/27 05:01:21;;;;;;;;;;;;;;;22.89;50.60;100190.84;4353199;32;34219;-81
2023/05/27 05:04:02;;;;;;;;;;;;;;;22.94;49.26;100192.13;4364258;32;34342;-81
2023/05/27 05:06:32;;;;;;;;;;;;;;;22.96;49.48;100194.69;4354203;32;34665;-81
2023/05/27 05:09:01;;;;;;;;;;;;;;;23.21;49.39;100188.78;4328957;32;32174;-81
2023/05/27 05:11:30;;;;;;;;;;;;;;;23.33;49.18;100196.78;4352914;32;34194;-81
2023/05/27 05:13:58;;;;;;;;;;;;;;;23.40;47.68;100192.50;4361956;32;34153;-82
2023/05/27 05:16:26;;;;;;;;;;;;;;;23.39;46.72;100196.19;4366209;32;33598;-81
2023/05/27 05:18:57;;;;;;;;;;;;;;;23.48;46.00;100196.22;4351274;32;34174;-81
2023/05/27 05:21:28;;;;;;;;;;;;;;;23.77;45.63;100196.25;4355618;32;33790;-81
2023/05/27 05:23:57;;;;;;;;;;;;;;;24.07;45.88;100196.22;4349113;32;34854;-82
2023/05/27 05:26:26;;;;;;;;;;;;;;;24.23;43.84;100200.06;4361780;32;33883;-81
2023/05/27 05:28:55;;;;;;;;;;;;;;;24.30;43.08;100194.06;4340213;32;33341;-82
2023/05/27 05:31:27;;;;;;;;;;;;;;;24.18;42.19;100201.50;4340292;32;33671;-81
2023/05/27 05:33:56;;;;;;;;;;;;;;;24.33;42.82;100199.19;4351026;32;33901;-80
2023/05/27 05:36:25;;;;;;;;;;;;;;;24.20;43.34;100200.34;4339080;32;34529;-80
2023/05/27 05:38:55;;;;;;;;;;;;;;;24.14;44.61;100206.31;4352024;32;33608;-80
2023/05/27 05:41:24;;;;;;;;;;;;;;;24.09;43.87;100205.06;4351074;32;34440;-80
2023/05/27 05:43:56;;;;;;;;;;;;;;;24.16;43.89;100215.09;4353464;32;33200;-81
2023/05/27 05:46:25;;;;;;;;;;;;;;;24.16;43.01;100207.00;4360864;32;34889;-81
2023/05/27 05:48:53;;;;;;;;;;;;;;;24.01;44.08;100211.16;4364598;32;31804;-82
2023/05/27 05:51:26;;;;;;;;;;;;;;;24.16;44.68;100217.81;4356211;32;34212;-81
2023/05/27 05:53:59;;;;;;;;;;;;;;;24.24;43.42;100212.53;4363924;32;33766;-82
2023/05/27 05:56:28;;;;;;;;;;;;;;;24.28;41.37;100213.97;4342260;32;33933;-81
2023/05/27 05:59:02;;;;;;;;;;;;;;;24.28;41.89;100222.06;4355199;32;33021;-82
2023/05/27 06:01:34;;;;;;;;;;;;;;;24.05;43.47;100220.66;4351817;32;34866;-82
2023/05/27 06:04:07;;;;;;;;;;;;;;;23.89;42.00;100225.78;4351787;32;33462;-82
2023/05/27 06:06:35;;;;;;;;;;;;;;;23.86;44.06;100226.06;4346928;32;34193;-81
2023/05/27 06:09:03;;;;;;;;;;;;;;;24.06;42.90;100224.22;4377169;32;33467;-80
2023/05/27 06:11:34;;;;;;;;;;;;;;;24.11;42.81;100230.87;4361181;32;33321;-81
2023/05/27 06:14:08;;;;;;;;;;;;;;;24.18;42.92;100234.72;4357410;32;34232;-81
2023/05/27 06:16:39;;;;;;;;;;;;;;;24.12;42.17;100231.72;4353974;32;34055;-81
2023/05/27 06:19:08;;;;;;;;;;;;;;;23.92;44.13;100242.53;4357775;32;33857;-81
2023/05/27 06:21:37;;;;;;;;;;;;;;;24.01;42.44;100246.22;4331704;32;34072;-82
2023/05/27 06:26:42;;;;;;;;;;;;;;;23.89;43.13;100252.78;4349063;32;34047;-81
2023/05/27 06:29:18;;;;;;;;;;;;;;;23.77;42.10;100260.97;4366457;32;33375;-81
2023/05/27 06:31:54;;;;;;;;;;;;;;;23.75;41.89;100265.66;4353612;32;33850;-81
2023/05/27 06:34:23;;;;;;;;;;;;;;;23.94;43.41;100263.97;4342533;32;33677;-81
2023/05/27 06:36:54;;;;;;;;;;;;;;;23.84;41.34;100266.69;4367863;32;32932;-81
2023/05/27 06:39:22;;;;;;;;;;;;;;;23.68;41.88;100263.66;4369405;32;36296;-81
2023/05/27 06:41:52;;;;;;;;;;;;;;;23.66;41.70;100263.81;4357847;32;34770;-81
2023/05/27 06:44:22;;;;;;;;;;;;;;;23.82;41.54;100263.25;4368453;32;34178;-81
2023/05/27 06:46:53;;;;;;;;;;;;;;;23.91;42.52;100266.94;4355516;32;35534;-81
2023/05/27 06:49:23;;;;;;;;;;;;;;;23.77;40.68;100263.66;4355001;32;32401;-81
2023/05/27 06:51:54;;;;;;;;;;;;;;;23.74;42.27;100272.06;4366459;32;35467;-81
2023/05/27 06:54:26;;;;;;;;;;;;;;;23.89;41.48;100264.41;4341829;32;34868;-81
2023/05/27 06:56:56;;;;;;;;;;;;;;;23.74;41.18;100277.44;4341680;32;36577;-81
2023/05/27 06:59:33;;;;;;;;;;;;;;;23.88;40.63;100272.62;4354429;32;33421;-81
2023/05/27 07:02:02;;;;;;;;;;;;;;;23.96;40.58;100275.47;4356142;32;34143;-81
2023/05/27 07:04:33;;;;;;;;;;;;;;;24.23;38.60;100266.66;4359584;32;34066;-81
2023/05/27 07:07:03;;;;;;;;;;;;;;;24.08;39.96;100278.91;4355752;32;34029;-81
2023/05/27 07:09:35;;;;;;;;;;;;;;;24.31;38.55;100279.41;4341874;32;32693;-81
2023/05/27 07:12:06;;;;;;;;;;;;;;;24.30;38.08;100278.56;4360160;32;33786;-81
2023/05/27 07:14:43;;;;;;;;;;;;;;;24.11;39.18;100279.44;4357059;32;35079;-81
2023/05/27 07:17:13;;;;;;;;;;;;;;;23.99;39.39;100276.03;4353098;32;33816;-81
2023/05/27 07:19:42;;;;;;;;;;;;;;;23.75;39.20;100275.59;4361011;32;32102;-82
2023/05/27 07:22:17;;;;;;;;;;;;;;;24.01;39.62;100281.28;4353892;32;33908;-81
2023/05/27 07:24:46;;;;;;;;;;;;;;;24.13;40.73;100282.84;4363386;32;32906;-83
2023/05/27 07:27:15;;;;;;;;;;;;;;;24.13;39.01;100284.72;4347968;32;33246;-84
2023/05/27 07:29:44;;;;;;;;;;;;;;;24.41;40.05;100291.13;4356762;32;33957;-83
2023/05/27 07:32:17;;;;;;;;;;;;;;;24.68;37.72;100277.69;4354109;32;35053;-83
2023/05/27 07:34:46;;;;;;;;;;;;;;;24.72;38.78;100278.25;4352747;32;34065;-83
2023/05/27 07:37:16;;;;;;;;;;;;;;;24.34;38.24;100282.69;4353357;32;33416;-83
2023/05/27 07:39:44;;;;;;;;;;;;;;;24.39;38.29;100276.91;4342074;32;32276;-84
2023/05/27 07:42:12;;;;;;;;;;;;;;;24.55;39.10;100276.31;4355117;32;33813;-84
2023/05/27 07:44:44;;;;;;;;;;;;;;;24.63;39.57;100273.72;4339987;32;35307;-83
2023/05/27 07:47:12;;;;;;;;;;;;;;;25.15;38.11;100275.00;4353016;32;34957;-84
2023/05/27 07:49:45;;;;;;;;;;;;;;;25.25;38.43;100280.34;4364212;32;33329;-84
2023/05/27 07:52:17;;;;;;;;;;;;;;;25.16;37.38;100271.31;4343053;32;33985;-84
2023/05/27 07:57:25;;;;;;;;;;;;;;;25.38;36.92;100269.19;4357395;32;33928;-84
2023/05/27 07:59:54;;;;;;;;;;;;;;;25.43;38.26;100267.75;4355200;32;33588;-84
2023/05/27 08:02:23;;;;;;;;;;;;;;;25.78;37.54;100260.72;4354259;32;34173;-82
2023/05/27 08:04:56;;;;;;;;;;;;;;;25.84;37.14;100264.66;4354184;32;33889;-83
2023/05/27 08:07:27;;;;;;;;;;;;;;;26.02;36.98;100265.53;4360304;32;33633;-82
2023/05/27 08:09:59;;;;;;;;;;;;;;;26.14;35.80;100260.72;4362457;32;32801;-82
2023/05/27 08:12:29;;;;;;;;;;;;;;;26.12;36.28;100257.31;4364095;32;34397;-83
2023/05/27 08:14:58;;;;;;;;;;;;;;;26.38;35.29;100252.78;4361831;32;33116;-82
2023/05/27 08:17:28;;;;;;;;;;;;;;;26.30;33.91;100259.00;4361089;32;33146;-83
2023/05/27 08:19:57;;;;;;;;;;;;;;;26.08;34.45;100256.78;4355176;32;33623;-83
2023/05/27 08:22:27;;;;;;;;;;;;;;;26.57;34.18;100245.50;4346200;32;33099;-83
2023/05/27 08:24:58;;;;;;;;;;;;;;;26.58;33.82;100245.31;4336142;32;34847;-82
2023/05/27 08:27:46;;;;;;;;;;;;;;;26.64;34.94;100257.41;4363345;32;34574;-83
2023/05/27 08:30:15;;;;;;;;;;;;;;;26.62;34.21;100244.00;4352390;32;32167;-82
2023/05/27 08:32:44;;;;;;;;;;;;;;;26.79;32.41;100247.66;4356401;32;34609;-83
2023/05/27 08:35:18;;;;;;;;;;;;;;;26.46;33.73;100244.75;4352337;32;34261;-83
2023/05/27 08:37:47;;;;;;;;;;;;;;;26.54;34.20;100241.25;4358020;32;34049;-83
2023/05/27 08:40:18;;;;;;;;;;;;;;;26.16;34.94;100246.03;4365795;32;33629;-83
2023/05/27 08:42:46;;;;;;;;;;;;;;;26.55;33.05;100246.50;4341685;32;33080;-83
2023/05/27 08:45:15;;;;;;;;;;;;;;;26.39;33.27;100242.78;4359788;32;34188;-83
2023/05/27 08:47:44;;;;;;;;;;;;;;;26.67;32.75;100244.37;4343519;32;34679;-83
2023/05/27 08:50:13;;;;;;;;;;;;;;;26.50;32.28;100248.00;4367440;32;32686;-83
2023/05/27 08:52:46;;;;;;;;;;;;;;;26.02;34.87;100254.69;4351526;32;32946;-83
2023/05/27 08:55:20;;;;;;;;;;;;;;;26.41;35.02;100243.50;4354154;32;34416;-83
2023/05/27 08:57:56;;;;;;;;;;;;;;;26.78;33.70;100244.13;4356370;32;33636;-83
2023/05/27 09:00:26;;;;;;;;;;;;;;;27.08;33.27;100244.63;4354689;32;32029;-83
2023/05/27 09:03:00;;;;;;;;;;;;;;;27.25;32.46;100251.81;4366337;32;33906;-83
2023/05/27 09:05:40;;;;;;;;;;;;;;;27.23;32.96;100245.69;4368016;32;35059;-83
2023/05/27 09:08:10;;;;;;;;;;;;;;;27.44;33.53;100244.41;4365638;32;33928;-83
2023/05/27 09:10:39;;;;;;;;;;;;;;;27.41;32.23;100245.59;4368721;32;33536;-83
2023/05/27 09:13:09;;;;;;;;;;;;;;;27.65;31.25;100238.53;4365173;32;33931;-83
2023/05/27 09:15:41;;;;;;;;;;;;;;;27.69;32.61;100237.19;4366340;32;35176;-83
2023/05/27 09:18:09;;;;;;;;;;;;;;;27.06;32.05;100242.06;4366223;32;33845;-83
2023/05/27 09:20:40;;;;;;;;;;;;;;;27.09;32.12;100238.19;4369667;32;32251;-82
2023/05/27 09:23:09;;;;;;;;;;;;;;;27.71;31.18;100240.56;4366611;32;33991;-82
2023/05/27 09:25:47;;;;;;;;;;;;;;;27.96;31.62;100238.75;4365958;32;35018;-82
2023/05/27 09:28:25;;;;;;;;;;;;;;;27.66;31.12;100230.22;4364432;32;33662;-82
2023/05/27 09:31:02;;;;;;;;;;;;;;;27.01;33.25;100227.28;4364677;32;33773;-82
2023/05/27 09:33:32;;;;;;;;;;;;;;;27.66;31.00;100224.78;4364632;32;34003;-82
2023/05/27 09:36:04;;;;;;;;;;;;;;;27.90;31.67;100229.44;4365107;32;34671;-83
2023/05/27 09:38:33;;;;;;;;;;;;;;;27.89;31.06;100224.19;4365095;32;34045;-82
2023/05/27 09:41:08;;;;;;;;;;;;;;;28.09;30.58;100222.81;4365924;32;33391;-82
2023/05/27 09:43:39;;;;;;;;;;;;;;;28.39;30.24;100212.31;4366052;32;34804;-82
2023/05/27 09:46:13;;;;;;;;;;;;;;;28.33;30.18;100217.38;4364307;32;34064;-83
2023/05/27 09:48:41;;;;;;;;;;;;;;;27.56;31.53;100215.97;4367499;32;33983;-82
2023/05/27 09:51:09;;;;;;;;;;;;;;;27.97;31.04;100221.50;4362659;32;33485;-82
2023/05/27 09:53:36;;;;;;;;;;;;;;;28.06;30.53;100218.59;4368045;32;33442;-82
2023/05/27 09:56:04;;;;;;;;;;;;;;;27.73;31.46;100222.31;4372810;32;34590;-82
2023/05/27 09:58:32;;;;;;;;;;;;;;;27.45;31.43;100229.84;4361716;32;34308;-82
2023/05/27 10:01:03;;;;;;;;;;;;;;;27.84;31.25;100219.25;4349724;32;33429;-82
2023/05/27 10:03:32;;;;;;;;;;;;;;;27.96;31.65;100217.06;4343337;32;32669;-82
2023/05/27 10:06:04;;;;;;;;;;;;;;;28.22;32.06;100209.59;4340407;32;35164;-82
2023/05/27 10:08:37;;;;;;;;;;;;;;;27.65;31.22;100209.53;4344539;32;34162;-82
2023/05/27 10:11:08;;;;;;;;;;;;;;;28.03;30.34;100202.66;4333469;32;34061;-82
2023/05/27 10:13:38;;;;;;;;;;;;;;;28.64;31.02;100204.97;4344509;32;33204;-83
2023/05/27 10:16:06;;;;;;;;;;;;;;;28.76;29.13;100198.97;4350128;32;34015;-82
2023/05/27 10:18:42;;;;;;;;;;;;;;;28.85;29.44;100197.06;4346617;32;34287;-83
2023/05/27 10:21:23;;;;;;;;;;;;;;;28.18;29.80;100199.25;4355658;32;34439;-82
2023/05/27 10:23:52;;;;;;;;;;;;;;;28.79;31.55;100200.50;4352730;32;33919;-82
2023/05/27 10:26:48;;;;;;;;;;;;;;;28.92;30.48;100203.53;4350500;32;34018;-82
2023/05/27 10:29:18;;;;;;;;;;;;;;;28.46;30.85;100202.47;4320130;32;33095;-82
2023/05/27 10:31:52;;;;;;;;;;;;;;;28.49;29.47;100191.25;4356358;32;34025;-82
2023/05/27 10:34:33;;;;;;;;;;;;;;;28.39;32.03;100196.00;4344553;32;33551;-82
2023/05/27 10:37:04;;;;;;;;;;;;;;;28.35;31.23;100195.53;4346429;32;33798;-83
2023/05/27 10:39:37;;;;;;;;;;;;;;;28.63;31.33;100200.53;4343294;32;35073;-82
2023/05/27 10:42:05;;;;;;;;;;;;;;;28.52;30.16;100201.75;4342292;32;33589;-82
2023/05/27 10:44:34;;;;;;;;;;;;;;;28.16;30.88;100196.72;4345057;32;34224;-82
2023/05/27 10:47:15;;;;;;;;;;;;;;;27.90;30.58;100196.87;4343847;32;34959;-82
2023/05/27 10:49:48;;;;;;;;;;;;;;;27.85;30.50;100209.25;4342253;32;35084;-82
2023/05/27 10:52:16;;;;;;;;;;;;;;;27.99;29.13;100198.56;4344635;32;33837;-82
2023/05/27 10:54:57;;;;;;;;;;;;;;;27.78;29.99;100193.66;4341300;32;33910;-83
2023/05/27 10:57:32;;;;;;;;;;;;;;;28.32;29.25;100190.41;4363549;32;33604;-82
2023/05/27 11:00:07;;;;;;;;;;;;;;;28.41;28.93;100185.84;4348167;32;33989;-82
2023/05/27 11:02:43;;;;;;;;;;;;;;;28.23;28.79;100192.28;4325551;32;31992;-82
2023/05/27 11:05:20;;;;;;;;;;;;;;;28.87;28.23;100191.47;4361229;32;34518;-83
2023/05/27 11:07:49;;;;;;;;;;;;;;;28.96;29.26;100183.16;4347613;32;34205;-83
2023/05/27 11:10:20;;;;;;;;;;;;;;;29.32;28.13;100180.75;4348670;32;33996;-83
2023/05/27 11:12:58;;;;;;;;;;;;;;;29.36;27.83;100177.66;4344654;32;33493;-82
2023/05/27 11:15:29;;;;;;;;;;;;;;;29.38;27.87;100179.16;4347453;32;34965;-82
2023/05/27 11:18:03;;;;;;;;;;;;;;;28.71;29.26;100182.34;4348236;32;33575;-82
2023/05/27 11:20:37;;;;;;;;;;;;;;;28.83;29.13;100178.25;4335508;32;33589;-82
2023/05/27 11:23:10;;;;;;;;;;;;;;;28.76;28.22;100188.09;4337395;32;33641;-82
2023/05/27 11:25:43;;;;;;;;;;;;;;;28.31;29.12;100184.13;4348563;32;33863;-82
2023/05/27 11:28:16;;;;;;;;;;;;;;;27.96;29.55;100174.47;4348835;32;34968;-83
2023/05/27 11:30:44;;;;;;;;;;;;;;;27.83;31.21;100179.59;4336419;32;34028;-83
2023/05/27 11:33:16;;;;;;;;;;;;;;;27.44;30.55;100182.03;4348052;32;33202;-82
2023/05/27 11:36:04;;;;;;;;;;;;;;;28.03;30.04;100171.94;4350707;32;35454;-83
2023/05/27 11:38:50;;;;;;;;;;;;;;;28.42;28.99;100169.34;4360201;32;34260;-82
2023/05/27 11:41:29;;;;;;;;;;;;;;;28.71;29.48;100168.75;4336473;32;34426;-82
2023/05/27 11:46:44;;;;;;;;;;;;;;;28.86;29.56;100162.59;4361082;32;33262;-83
2023/05/27 11:49:14;;;;;;;;;;;;;;;29.06;29.43;100164.75;4335522;32;34335;-82
2023/05/27 11:51:44;;;;;;;;;;;;;;;29.20;28.18;100173.16;4348459;32;34625;-82
2023/05/27 11:54:20;;;;;;;;;;;;;;;28.37;30.66;100162.75;4322231;32;836386;-82
2023/05/27 11:56:49;;;;;;;;;;;;;;;28.50;29.07;100163.06;4359671;32;33876;-82
2023/05/27 11:59:19;;;;;;;;;;;;;;;28.23;30.38;100165.13;4354156;32;33595;-82
2023/05/27 12:01:49;;;;;;;;;;;;;;;28.10;30.84;100163.94;4365324;32;34481;-83
2023/05/27 12:04:20;;;;;;;;;;;;;;;27.67;30.62;100164.09;4328632;32;33112;-82
2023/05/27 12:06:48;;;;;;;;;;;;;;;27.66;30.52;100161.56;4356583;32;34461;-82
2023/05/27 12:12:03;;;;;;;;;;;;;;;27.68;30.16;100159.50;4358860;32;34763;-82
2023/05/27 12:14:34;;;;;;;;;;;;;;;27.59;30.91;100150.53;4356573;32;33366;-83
2023/05/27 12:17:02;;;;;;;;;;;;;;;27.93;31.00;100144.12;4352518;32;33652;-83
2023/05/27 12:19:34;;;;;;;;;;;;;;;28.25;31.30;100141.38;4363427;32;33865;-82
2023/05/27 12:22:04;;;;;;;;;;;;;;;28.53;29.51;100141.84;4366600;32;34099;-82
2023/05/27 12:24:36;;;;;;;;;;;;;;;28.41;30.38;100139.66;4351712;32;33384;-82
2023/05/27 12:27:05;;;;;;;;;;;;;;;28.39;30.37;100141.69;4343519;32;34391;-82
2023/05/27 12:29:36;;;;;;;;;;;;;;;28.44;29.62;100140.16;4360140;32;34885;-82
2023/05/27 12:32:06;;;;;;;;;;;;;;;28.20;29.47;100143.75;4359028;32;33392;-82
2023/05/27 12:34:34;;;;;;;;;;;;;;;28.01;29.91;100136.84;4365089;32;33268;-82
2023/05/27 12:37:03;;;;;;;;;;;;;;;27.53;32.57;100140.34;4361277;32;32816;-83
2023/05/27 12:39:41;;;;;;;;;;;;;;;27.79;31.02;100135.66;4366196;32;33375;-82
2023/05/27 12:42:09;;;;;;;;;;;;;;;27.76;32.24;100127.00;4367145;32;34187;-82
2023/05/27 12:44:39;;;;;;;;;;;;;;;28.14;30.76;100121.87;4351506;32;33330;-82
2023/05/27 12:47:19;;;;;;;;;;;;;;;28.36;30.28;100125.75;4363018;32;33846;-83
2023/05/27 12:49:47;;;;;;;;;;;;;;;28.89;31.89;100127.75;4339480;32;33750;-82
2023/05/27 12:52:16;;;;;;;;;;;;;;;28.76;32.21;100128.31;4360260;32;32756;-82
2023/05/27 12:54:45;;;;;;;;;;;;;;;28.62;32.19;100128.22;4363978;32;32247;-82
2023/05/27 12:57:26;;;;;;;;;;;;;;;28.28;33.75;100124.72;4351747;32;33360;-82
2023/05/27 12:59:54;;;;;;;;;;;;;;;28.04;34.87;100124.78;4351418;32;33270;-82
2023/05/27 13:02:23;;;;;;;;;;;;;;;27.30;36.01;100123.91;4352658;32;33901;-82